createdAt,value
2019-01-27T00:00:17.223Z,5.95
2019-01-27T00:03:47.357Z,4.55
2019-01-27T00:07:17.526Z,6.38
2019-01-27T00:10:47.706Z,5.79
2019-01-27T00:14:17.827Z,6.32
2019-01-27T00:17:47.895Z,3.22
2019-01-27T00:21:18.006Z,5.38
2019-01-27T00:24:48.021Z,5.12
2019-01-27T00:28:18.145Z,2.45
2019-01-27T00:31:48.225Z,7.51
2019-01-27T00:35:18.345Z,5.58
2019-01-27T00:38:48.635Z,6.46
2019-01-27T00:42:18.785Z,6.86
2019-01-27T00:45:49.890Z,6.03
2019-01-27T00:49:20.104Z,6.36
2019-01-27T00:52:50.039Z,6.56
2019-01-27T00:56:20.004Z,6.95
2019-01-27T00:59:50.005Z,7.35
2019-01-27T01:03:20.139Z,7.05
2019-01-27T01:06:50.225Z,7.14
2019-01-27T01:10:21.167Z,8.34
2019-01-27T01:13:51.305Z,8.04
2019-01-27T01:17:21.343Z,7.23
2019-01-27T01:20:51.414Z,7.19
2019-01-27T01:24:21.613Z,7.94
2019-01-27T01:27:51.743Z,7.74
2019-01-27T01:31:21.934Z,8.7
2019-01-27T01:34:51.932Z,7.9
2019-01-27T01:38:21.903Z,7.2
2019-01-27T01:41:51.943Z,9.82
2019-01-27T01:45:24.375Z,9.6
2019-01-27T01:48:55.382Z,7.23
2019-01-27T01:52:25.553Z,7.84
2019-01-27T01:55:55.592Z,7.21
2019-01-27T01:59:25.692Z,4.74
2019-01-27T02:00:18.733Z,6.05
2019-01-27T02:03:48.892Z,7.91
2019-01-27T02:07:19.072Z,7.27
2019-01-27T02:10:49.262Z,2.77
2019-01-27T02:14:19.371Z,10.21
2019-01-27T02:17:49.421Z,7.46
2019-01-27T02:21:19.491Z,8.76
2019-01-27T02:24:49.575Z,7.31
2019-01-27T02:28:19.791Z,8.19
2019-01-27T02:31:49.891Z,10.02
2019-01-27T02:35:19.991Z,7.97
2019-01-27T02:38:50.039Z,9.53
2019-01-27T02:42:20.082Z,9.4
2019-01-27T02:45:50.128Z,8.36
2019-01-27T02:49:21.051Z,9.3
2019-01-27T02:52:51.110Z,9.18
2019-01-27T02:56:21.340Z,9.45
2019-01-27T02:59:52.795Z,9.41
2019-01-27T03:03:23.020Z,8.12
2019-01-27T03:06:58.553Z,8.45
2019-01-27T03:10:28.700Z,9.64
2019-01-27T03:13:58.890Z,10.03
2019-01-27T03:17:29.020Z,9.88
2019-01-27T03:20:59.056Z,9.45
2019-01-27T03:24:29.110Z,10.75
2019-01-27T03:27:59.220Z,9.57
2019-01-27T03:31:29.343Z,9.96
2019-01-27T03:34:59.310Z,10.67
2019-01-27T03:38:29.440Z,10.21
2019-01-27T03:41:59.570Z,11.8
2019-01-27T03:45:29.669Z,10.96
2019-01-27T03:48:59.879Z,11.45
2019-01-27T03:52:30.849Z,12.11
2019-01-27T03:56:01.021Z,10.64
2019-01-27T03:59:31.050Z,11.34
2019-01-27T04:00:17.770Z,12.93
2019-01-27T04:03:47.779Z,13.04
2019-01-27T04:07:17.972Z,11.55
2019-01-27T04:10:48.021Z,11.39
2019-01-27T04:14:18.183Z,11.66
2019-01-27T04:17:48.362Z,12.8
2019-01-27T04:21:18.459Z,13.56
2019-01-27T04:24:48.606Z,11.81
2019-01-27T04:28:18.779Z,8.74
2019-01-27T04:31:48.808Z,11.85
2019-01-27T04:35:18.963Z,12.79
2019-01-27T04:38:49.039Z,13.21
2019-01-27T04:42:19.207Z,12.97
2019-01-27T04:45:49.238Z,11.24
2019-01-27T04:49:19.369Z,10.7
2019-01-27T04:52:50.489Z,11.3
2019-01-27T04:56:20.558Z,10.99
2019-01-27T04:59:50.702Z,10.24
2019-01-27T05:05:41.708Z,11.54
2019-01-27T05:09:11.879Z,11.64
2019-01-27T05:12:42.058Z,11.93
2019-01-27T05:16:12.139Z,11.62
2019-01-27T05:19:42.223Z,13.07
2019-01-27T05:23:12.328Z,13.22
2019-01-27T05:26:42.451Z,13.36
2019-01-27T05:30:15.548Z,14.01
2019-01-27T05:33:45.748Z,12.49
2019-01-27T05:37:15.862Z,12.51
2019-01-27T05:40:45.878Z,12.9
2019-01-27T05:44:15.988Z,11.79
2019-01-27T05:47:46.129Z,14.53
2019-01-27T05:51:16.269Z,14.23
2019-01-27T05:54:47.478Z,15.3
2019-01-27T05:58:17.668Z,13.92
2019-01-27T06:00:20.379Z,16.85
2019-01-27T06:03:50.357Z,13.56
2019-01-27T06:07:20.499Z,14.99
2019-01-27T06:10:50.758Z,14.88
2019-01-27T06:14:20.930Z,16.51
2019-01-27T06:17:50.978Z,15.12
2019-01-27T06:21:21.218Z,13.1
2019-01-27T06:24:51.228Z,12.98
2019-01-27T06:28:21.360Z,12.9
2019-01-27T06:31:51.449Z,13.77
2019-01-27T06:35:21.445Z,14.24
2019-01-27T06:38:51.496Z,12.61
2019-01-27T06:42:21.566Z,15.26
2019-01-27T06:45:51.598Z,14.45
2019-01-27T06:49:21.788Z,15.44
2019-01-27T06:52:51.858Z,15.35
2019-01-27T06:56:22.888Z,15.03
2019-01-27T06:59:57.707Z,14.53
2019-01-27T07:03:31.348Z,13.4
2019-01-27T07:07:15.108Z,16.12
2019-01-27T07:11:03.719Z,17.36
2019-01-27T07:14:42.528Z,22.91
2019-01-27T07:18:26.358Z,23.69
2019-01-27T07:22:23.148Z,18.89
2019-01-27T07:26:04.988Z,20.62
2019-01-27T07:32:09.642Z,16.96
2019-01-27T07:35:49.139Z,19.73
2019-01-27T07:39:27.449Z,21.35
2019-01-27T07:43:05.919Z,16.64
2019-01-27T07:46:58.089Z,21.15
2019-01-27T07:52:57.909Z,11.54
2019-01-27T07:57:43.209Z,12.69
2019-01-27T08:00:23.739Z,12.7
2019-01-27T08:06:22.369Z,14.06
2019-01-27T08:10:06.079Z,12.03
2019-01-27T08:13:43.059Z,12.36
2019-01-27T08:19:50.640Z,16
2019-01-27T08:23:29.149Z,14.09
2019-01-27T08:29:25.539Z,14.12
2019-01-27T08:33:18.323Z,13.67
2019-01-27T08:36:53.944Z,12.79
2019-01-27T08:40:38.250Z,13.68
2019-01-27T08:44:18.040Z,14.69
2019-01-27T08:47:48.130Z,11.5
2019-01-27T08:51:18.170Z,13.14
2019-01-27T08:54:48.230Z,11.9
2019-01-27T08:58:20.190Z,11.72
2019-01-27T09:04:17.576Z,12.94
2019-01-27T09:07:53.505Z,11.61
2019-01-27T09:11:39.661Z,11.89
2019-01-27T09:17:42.581Z,11.59
2019-01-27T09:21:18.268Z,12.61
2019-01-27T09:25:11.921Z,14.91
2019-01-27T09:28:48.341Z,13.31
2019-01-27T09:32:27.891Z,14.46
2019-01-27T09:36:06.442Z,10.52
2019-01-27T09:40:01.022Z,11.84
2019-01-27T09:43:40.372Z,12.56
2019-01-27T09:47:35.792Z,13.38
2019-01-27T09:52:16.362Z,10.81
2019-01-27T09:55:59.042Z,11.99
2019-01-27T09:59:50.778Z,12.19
2019-01-27T10:01:05.382Z,14.38
2019-01-27T10:04:41.913Z,11.43
2019-01-27T10:10:39.335Z,14.11
2019-01-27T10:14:33.372Z,16.43
2019-01-27T10:20:31.265Z,16.19
2019-01-27T10:24:11.673Z,17.04
2019-01-27T10:27:58.003Z,13.14
2019-01-27T10:31:55.112Z,13.62
2019-01-27T10:37:49.253Z,12.94
2019-01-27T10:41:26.443Z,14.38
2019-01-27T10:45:04.174Z,14.6
2019-01-27T10:48:42.803Z,13.48
2019-01-27T10:58:42.723Z,17.81
2019-01-27T11:02:38.017Z,19.96
2019-01-27T11:06:17.108Z,15.32
2019-01-27T11:09:54.138Z,11.79
2019-01-27T11:13:34.604Z,12.94
2019-01-27T11:17:16.934Z,13.54
2019-01-27T11:22:17.424Z,13.05
2019-01-27T11:26:00.780Z,13.49
2019-01-27T11:29:37.654Z,11.65
2019-01-27T11:33:47.955Z,14.3
2019-01-27T11:37:59.834Z,12.7
2019-01-27T11:41:46.074Z,10.64
2019-01-27T11:45:24.415Z,12.25
2019-01-27T11:51:24.533Z,12.74
2019-01-27T11:54:54.666Z,14.5
2019-01-27T11:58:24.694Z,12.24
2019-01-27T12:00:18.189Z,13.84
2019-01-27T12:03:48.485Z,11.97
2019-01-27T12:07:18.577Z,13.12
2019-01-27T12:10:48.736Z,11.49
2019-01-27T12:14:18.946Z,13.81
2019-01-27T12:17:49.077Z,12.46
2019-01-27T12:21:19.238Z,16.03
2019-01-27T12:24:49.296Z,14.24
2019-01-27T12:28:19.296Z,17.12
2019-01-27T12:31:49.418Z,11.07
2019-01-27T12:35:19.916Z,11.81
2019-01-27T12:38:50.036Z,13.65
2019-01-27T12:42:20.106Z,12.16
2019-01-27T12:45:50.256Z,15.95
2019-01-27T12:49:20.386Z,16.21
2019-01-27T12:52:50.799Z,12.61
2019-01-27T12:56:20.927Z,14.96
2019-01-27T12:59:51.057Z,11.46
2019-01-27T13:03:21.593Z,17.48
2019-01-27T13:06:52.747Z,13.55
2019-01-27T13:10:22.917Z,13.47
2019-01-27T13:13:52.977Z,13.95
2019-01-27T13:17:23.057Z,13.15
2019-01-27T13:20:53.177Z,13.4
2019-01-27T13:24:23.230Z,16.39
2019-01-27T13:27:53.375Z,14.35
2019-01-27T13:31:23.377Z,12.96
2019-01-27T13:34:56.263Z,17.43
2019-01-27T13:38:26.487Z,17.71
2019-01-27T13:41:56.579Z,16.81
2019-01-27T13:45:26.957Z,15.66
2019-01-27T13:48:57.027Z,14.55
2019-01-27T13:52:26.977Z,14.9
2019-01-27T13:55:57.002Z,20.66
2019-01-27T13:59:26.983Z,18.6
2019-01-27T14:00:20.132Z,25
2019-01-27T14:03:50.108Z,24.61
2019-01-27T14:07:21.098Z,17.36
2019-01-27T14:10:51.127Z,23.09
2019-01-27T14:14:21.237Z,26.75
2019-01-27T14:17:51.308Z,13.72
2019-01-27T14:21:21.378Z,16.06
2019-01-27T14:24:51.527Z,25.8
2019-01-27T14:28:21.607Z,18.68
2019-01-27T14:31:51.707Z,19.82
2019-01-27T14:35:21.787Z,19.55
2019-01-27T14:38:51.972Z,19.2
2019-01-27T14:42:22.032Z,21.29
2019-01-27T14:45:52.139Z,19.25
2019-01-27T14:49:22.277Z,15.94
2019-01-27T14:52:52.419Z,15.04
2019-01-27T14:56:22.517Z,15.12
2019-01-27T14:59:52.644Z,16.35
2019-01-27T15:03:22.817Z,19.34
2019-01-27T15:06:52.890Z,25.49
2019-01-27T15:10:24.107Z,21.09
2019-01-27T15:13:54.147Z,22.51
2019-01-27T15:17:24.357Z,28.33
2019-01-27T15:20:59.129Z,20.61
2019-01-27T15:24:29.247Z,23.24
2019-01-27T15:27:59.426Z,24.2
2019-01-27T15:31:29.447Z,27.45
2019-01-27T15:34:59.547Z,25.15
2019-01-27T15:38:29.646Z,22.69
2019-01-27T15:41:59.727Z,22.21
2019-01-27T15:45:30.237Z,27.5
2019-01-27T15:49:00.349Z,19.23
2019-01-27T15:52:30.387Z,19.06
2019-01-27T15:56:00.508Z,26.12
2019-01-27T15:59:30.518Z,46.6
2019-01-27T16:00:20.405Z,46.9
2019-01-27T16:03:50.594Z,25.86
2019-01-27T16:07:20.727Z,22.2
2019-01-27T16:10:51.950Z,33.06
2019-01-27T16:14:22.012Z,25.69
2019-01-27T16:17:52.197Z,26.96
2019-01-27T16:21:22.187Z,21.95
2019-01-27T16:24:52.377Z,27.15
2019-01-27T16:28:22.397Z,29.72
2019-01-27T16:31:57.892Z,21.91
2019-01-27T16:35:28.047Z,27.75
2019-01-27T16:38:58.309Z,16.94
2019-01-27T16:42:28.446Z,18.2
2019-01-27T16:45:58.597Z,20.51
2019-01-27T16:49:28.617Z,21.49
2019-01-27T16:52:58.717Z,20.49
2019-01-27T16:56:29.176Z,20.6
2019-01-27T16:59:59.247Z,20.07
2019-01-27T17:03:29.319Z,19.91
2019-01-27T17:06:59.371Z,19.02
2019-01-27T17:10:29.427Z,16.79
2019-01-27T17:14:00.517Z,19.66
2019-01-27T17:17:30.597Z,23.95
2019-01-27T17:21:00.726Z,17.1
2019-01-27T17:24:30.857Z,17.05
2019-01-27T17:28:01.047Z,16.32
2019-01-27T17:31:31.209Z,19.88
2019-01-27T17:35:01.763Z,19.19
2019-01-27T17:38:32.027Z,13.61
2019-01-27T17:42:02.296Z,23.91
2019-01-27T17:45:32.426Z,22.35
2019-01-27T17:49:02.706Z,20.53
2019-01-27T17:52:32.806Z,22.19
2019-01-27T17:56:03.267Z,17.8
2019-01-27T17:59:38.706Z,25.7
2019-01-27T18:00:34.581Z,28
2019-01-27T18:06:30.526Z,29.35
2019-01-27T18:10:22.839Z,27.39
2019-01-27T18:14:31.136Z,26.11
2019-01-27T18:18:01.393Z,29.12
2019-01-27T18:21:31.481Z,27.14
2019-01-27T18:25:01.518Z,27.32
2019-01-27T18:28:31.766Z,27.86
2019-01-27T18:32:01.976Z,34.31
2019-01-27T18:35:32.017Z,32.3
2019-01-27T18:39:06.613Z,30.25
2019-01-27T18:42:37.243Z,26.86
2019-01-27T18:46:07.615Z,25.74
2019-01-27T18:49:37.729Z,25.48
2019-01-27T18:53:20.146Z,22.82
2019-01-27T18:56:55.786Z,26.66
2019-01-27T19:00:37.986Z,28.4
2019-01-27T19:04:15.976Z,34.3
2019-01-27T19:07:55.086Z,27.6
2019-01-27T19:11:35.306Z,28.69
2019-01-27T19:16:29.526Z,37.11
2019-01-27T19:20:11.795Z,30.04
2019-01-27T19:24:13.446Z,28.11
2019-01-27T19:28:27.885Z,26.88
2019-01-27T19:34:26.446Z,23.85
2019-01-27T19:38:04.562Z,26.31
2019-01-27T19:41:43.726Z,26.45
2019-01-27T19:45:22.735Z,23.5
2019-01-27T19:49:16.436Z,28.33
2019-01-27T19:53:57.726Z,23.8
2019-01-27T19:57:37.018Z,14.06
2019-01-27T20:00:27.206Z,13.66
2019-01-27T20:04:07.876Z,12.94
2019-01-27T20:07:46.186Z,13.6
2019-01-27T20:17:18.215Z,15.31
2019-01-27T20:20:58.275Z,17.43
2019-01-27T20:24:38.355Z,17.27
2019-01-27T20:28:16.325Z,17.3
2019-01-27T20:34:29.985Z,20.15
2019-01-27T20:38:11.415Z,16.04
2019-01-27T20:41:54.575Z,16.21
2019-01-27T20:46:11.945Z,17.32
2019-01-27T20:49:50.965Z,13.26
2019-01-27T20:53:26.837Z,11.6
2019-01-27T20:57:04.761Z,10.61
2019-01-27T21:00:44.713Z,12.36
2019-01-27T21:04:22.930Z,13.3
2019-01-27T21:08:04.824Z,12.6
2019-01-27T21:11:44.830Z,11.93
2019-01-27T21:18:12.353Z,15.91
2019-01-27T21:21:42.504Z,17.26
2019-01-27T21:25:12.824Z,15.34
2019-01-27T21:28:42.876Z,15.65
2019-01-27T21:32:12.989Z,12.89
2019-01-27T21:35:42.944Z,11.7
2019-01-27T21:39:13.103Z,12.24
2019-01-27T21:42:47.562Z,18.88
2019-01-27T21:46:18.056Z,12.94
2019-01-27T21:49:48.138Z,10.76
2019-01-27T21:53:18.360Z,15.76
2019-01-27T21:56:48.440Z,11.45
2019-01-27T22:00:18.978Z,11.95
2019-01-27T22:03:49.016Z,12.23
2019-01-27T22:07:19.213Z,10.26
2019-01-27T22:10:49.239Z,10.75
2019-01-27T22:14:19.269Z,10.03
2019-01-27T22:17:49.379Z,16.07
2019-01-27T22:21:20.466Z,9.11
2019-01-27T22:24:50.646Z,10.72
2019-01-27T22:28:20.812Z,11.01
2019-01-27T22:31:50.900Z,10.92
2019-01-27T22:35:21.088Z,11.62
2019-01-27T22:38:51.167Z,13.57
2019-01-27T22:42:21.282Z,12.34
2019-01-27T22:45:51.425Z,10.6
2019-01-27T22:49:21.482Z,12.59
2019-01-27T22:52:51.501Z,10.51
2019-01-27T22:56:21.587Z,11.22
2019-01-27T22:59:51.697Z,11.71
2019-01-27T23:03:21.934Z,11.45
2019-01-27T23:06:51.921Z,12.82
2019-01-27T23:10:22.051Z,11.22
2019-01-27T23:13:52.101Z,11.11
2019-01-27T23:17:22.197Z,10.01
2019-01-27T23:20:52.245Z,9.97
2019-01-27T23:24:23.383Z,10.76
2019-01-27T23:27:53.501Z,10.22
2019-01-27T23:31:23.683Z,9.76
2019-01-27T23:34:53.797Z,12.22
2019-01-27T23:38:23.906Z,10.82
2019-01-27T23:41:53.946Z,10.8
2019-01-27T23:45:24.242Z,10.47
2019-01-27T23:48:54.371Z,12.31
2019-01-27T23:52:24.549Z,9.46
2019-01-27T23:55:54.631Z,11.49
2019-01-27T23:59:24.735Z,11.04
